Time;durP1;ratioP1;P1;durP2;ratioP2;P2;SDS_P1;SDS_P2;PMS_P1;PMS_P2;Temp;Humidity;BMP_temperature;BMP_pressure;BME280_temperature;BME280_humidity;BME280_pressure;Samples;Min_cycle;Max_cycle;Signal;HPM_P1;HPM_P2
2022/11/11 00:01:26;;;;;;;5.83;5.20;;;7.70;99.90;;;;;;4993210;28;20229;-76
2022/11/11 00:03:55;;;;;;;9.70;5.90;;;7.40;99.90;;;;;;4990734;28;20188;-75
2022/11/11 00:06:21;;;;;;;6.03;4.97;;;7.20;99.90;;;;;;4991365;28;20238;-75
2022/11/11 00:08:47;;;;;;;6.00;5.40;;;7.20;99.90;;;;;;5007725;28;20190;-75
2022/11/11 00:11:14;;;;;;;9.02;5.28;;;7.50;99.90;;;;;;4990968;28;20683;-75
2022/11/11 00:13:41;;;;;;;6.40;5.38;;;7.30;99.90;;;;;;4985858;28;20208;-74
2022/11/11 00:16:12;;;;;;;6.13;5.60;;;7.50;99.90;;;;;;5002971;28;20186;-77
2022/11/11 00:26:46;;;;;;;7.28;6.00;;;7.10;99.90;;;;;;5036020;22;20256;-71
2022/11/11 00:29:12;;;;;;;7.60;5.67;;;7.50;99.90;;;;;;5027780;28;20650;-71
2022/11/11 00:32:21;;;;;;;5.73;5.23;;;7.20;99.90;;;;;;5023297;28;20206;-71
2022/11/11 00:34:23;;;;;;;8.57;5.68;;;7.10;99.90;;;;;;5010545;28;20175;-72
2022/11/11 00:36:49;;;;;;;6.50;5.60;;;7.20;99.90;;;;;;5009709;28;20670;-71
2022/11/11 00:39:15;;;;;;;7.43;5.70;;;7.20;99.90;;;;;;5009483;28;20182;-71
2022/11/11 00:41:40;;;;;;;8.33;5.53;;;7.20;99.90;;;;;;5012130;28;20187;-71
2022/11/11 00:44:06;;;;;;;7.40;5.70;;;7.10;99.90;;;;;;5010304;28;20283;-72
2022/11/11 00:52:00;;;;;;;12.25;5.60;;;7.30;99.90;;;;;;5012228;28;20233;-72
2022/11/11 00:54:26;;;;;;;6.27;5.40;;;7.00;99.90;;;;;;5018306;28;20183;-71
2022/11/11 00:56:51;;;;;;;6.30;5.33;;;7.10;99.90;;;;;;5014772;28;20639;-71
2022/11/11 00:59:17;;;;;;;7.07;5.67;;;7.00;99.90;;;;;;5018331;28;20185;-71
2022/11/11 01:01:42;;;;;;;6.73;5.93;;;7.00;99.90;;;;;;5019192;28;20206;-71
2022/11/11 01:04:08;;;;;;;5.80;5.07;;;7.40;99.90;;;;;;5014207;28;20183;-72
2022/11/11 01:06:34;;;;;;;6.50;4.80;;;7.10;99.90;;;;;;5013198;28;20586;-72
2022/11/11 01:09:05;;;;;;;6.47;5.17;;;7.10;99.90;;;;;;5016991;28;20510;-72
2022/11/11 01:11:30;;;;;;;5.60;5.00;;;6.90;99.90;;;;;;5015371;28;20246;-72
2022/11/11 01:13:56;;;;;;;7.20;5.53;;;6.90;99.90;;;;;;5017766;28;20187;-72
2022/11/11 01:16:25;;;;;;;9.20;5.10;;;6.80;99.90;;;;;;5014504;28;20182;-72
2022/11/11 01:18:51;;;;;;;6.13;4.50;;;7.10;99.90;;;;;;5011667;28;20239;-72
2022/11/11 01:21:22;;;;;;;9.15;5.63;;;6.80;99.90;;;;;;5012749;28;20191;-72
2022/11/11 01:23:50;;;;;;;10.98;6.15;;;6.90;99.90;;;;;;5010979;28;20200;-72
2022/11/11 01:26:26;;;;;;;8.25;5.30;;;6.60;99.90;;;;;;5009478;28;20207;-71
2022/11/11 01:28:54;;;;;;;6.55;5.38;;;7.00;99.90;;;;;;5011633;28;20265;-72
2022/11/11 01:31:22;;;;;;;6.22;5.63;;;7.30;99.90;;;;;;5017445;28;20211;-72
2022/11/11 01:33:49;;;;;;;8.02;5.13;;;7.00;99.90;;;;;;5015383;28;20663;-72
2022/11/11 01:36:20;;;;;;;7.85;5.25;;;7.20;99.90;;;;;;5011677;28;20183;-72
2022/11/11 01:38:55;;;;;;;6.75;4.97;;;7.20;99.90;;;;;;5010075;28;20323;-72
2022/11/11 01:41:32;;;;;;;8.35;5.43;;;7.00;99.90;;;;;;5015100;28;20286;-72
2022/11/11 01:44:11;;;;;;;6.35;5.25;;;7.20;99.90;;;;;;5011499;28;20461;-72
2022/11/11 01:46:46;;;;;;;6.55;4.80;;;7.40;99.90;;;;;;5012921;28;20190;-71
2022/11/11 01:49:21;;;;;;;7.20;5.28;;;7.10;99.90;;;;;;5012282;28;20552;-72
2022/11/11 01:52:15;;;;;;;5.40;4.72;;;7.20;99.90;;;;;;5009012;28;20624;-72
2022/11/11 01:55:02;;;;;;;5.55;4.70;;;7.40;99.90;;;;;;5011574;28;20179;-72
2022/11/11 01:57:35;;;;;;;5.13;4.63;;;7.20;99.90;;;;;;5012672;28;20196;-72
2022/11/11 02:00:05;;;;;;;5.53;5.03;;;6.40;99.90;;;;;;4994938;28;20191;-72
2022/11/11 02:02:54;;;;;;;5.65;4.95;;;7.00;99.90;;;;;;5009524;28;20201;-72
2022/11/11 02:08:32;;;;;;;7.15;5.57;;;7.00;99.90;;;;;;5013278;28;20209;-72
2022/11/11 02:14:34;;;;;;;5.43;4.93;;;7.10;99.90;;;;;;5015426;28;20230;-72
2022/11/11 02:16:46;;;;;;;4.68;4.15;;;7.20;99.90;;;;;;5006530;28;20321;-72
2022/11/11 02:19:14;;;;;;;7.40;4.70;;;7.30;99.90;;;;;;5011231;28;20306;-72
2022/11/11 02:21:48;;;;;;;6.00;4.15;;;7.50;99.90;;;;;;5007343;28;20441;-71
2022/11/11 02:24:18;;;;;;;4.45;4.05;;;7.40;99.90;;;;;;5012386;28;20550;-71
2022/11/11 02:26:45;;;;;;;4.70;4.30;;;7.40;99.90;;;;;;5010932;28;20202;-72
2022/11/11 02:29:15;;;;;;;6.07;5.05;;;7.50;99.90;;;;;;5007509;28;20278;-72
2022/11/11 02:31:40;;;;;;;5.50;4.95;;;7.30;99.90;;;;;;5004647;28;20199;-72
2022/11/11 02:34:06;;;;;;;5.27;4.20;;;7.50;99.90;;;;;;5022202;28;20545;-72
2022/11/11 02:36:31;;;;;;;6.27;4.73;;;7.60;99.90;;;;;;5007900;28;20221;-72
2022/11/11 02:38:58;;;;;;;8.97;4.40;;;7.30;99.90;;;;;;5007197;28;20220;-72
2022/11/11 02:44:07;;;;;;;5.25;4.68;;;7.20;99.90;;;;;;5008332;28;20196;-71
2022/11/11 02:46:33;;;;;;;5.67;5.03;;;7.10;99.90;;;;;;4999879;28;20644;-72
2022/11/11 02:48:58;;;;;;;4.50;4.10;;;7.10;99.90;;;;;;5011070;28;20194;-72
2022/11/11 02:51:24;;;;;;;5.30;4.80;;;7.20;99.90;;;;;;5008465;28;20272;-72
2022/11/11 02:53:50;;;;;;;6.50;5.23;;;6.90;99.90;;;;;;5008511;28;20201;-72
2022/11/11 02:57:05;;;;;;;6.07;4.17;;;7.10;99.90;;;;;;5021587;28;20606;-72
2022/11/11 02:59:01;;;;;;;4.50;4.10;;;7.20;99.90;;;;;;5010985;28;20249;-72
2022/11/11 03:01:26;;;;;;;5.70;5.10;;;7.00;99.90;;;;;;5009015;28;20643;-72
2022/11/11 03:03:52;;;;;;;6.77;4.73;;;7.10;99.90;;;;;;5016608;28;20764;-72
2022/11/11 03:06:18;;;;;;;5.13;4.20;;;6.90;99.90;;;;;;5005993;28;20191;-72
2022/11/11 03:08:43;;;;;;;5.80;4.77;;;6.90;99.90;;;;;;5010971;28;20723;-72
2022/11/11 03:11:09;;;;;;;4.90;4.47;;;6.70;99.90;;;;;;5004970;28;20258;-72
2022/11/11 03:13:34;;;;;;;6.00;4.70;;;6.80;99.90;;;;;;5013169;28;20289;-72
2022/11/11 03:16:00;;;;;;;4.67;4.13;;;6.80;99.90;;;;;;5005711;28;20179;-72
2022/11/11 03:18:26;;;;;;;5.50;4.87;;;6.90;99.90;;;;;;5009431;28;20213;-72
2022/11/11 03:21:03;;;;;;;6.70;5.00;;;7.00;99.90;;;;;;5012123;28;20183;-71
2022/11/11 03:23:29;;;;;;;4.78;4.28;;;7.00;99.90;;;;;;5012923;28;20627;-71
2022/11/11 03:25:54;;;;;;;5.90;5.00;;;7.30;99.90;;;;;;5011186;28;20202;-71
2022/11/11 03:28:20;;;;;;;5.13;4.13;;;6.80;99.90;;;;;;5007237;28;20191;-71
2022/11/11 03:30:48;;;;;;;4.97;4.53;;;7.00;99.90;;;;;;5010081;28;20226;-71
2022/11/11 03:33:18;;;;;;;4.95;4.30;;;6.80;99.90;;;;;;5007895;28;20237;-71
2022/11/11 03:35:45;;;;;;;6.88;4.45;;;6.50;99.90;;;;;;5008581;28;20179;-72
2022/11/11 03:38:22;;;;;;;5.05;3.53;;;6.80;99.90;;;;;;5006326;28;20190;-71
2022/11/11 03:40:53;;;;;;;5.35;3.85;;;6.80;99.90;;;;;;5008869;28;20191;-71
2022/11/11 03:43:22;;;;;;;5.75;4.03;;;6.50;99.90;;;;;;5010580;28;20282;-71
2022/11/11 03:45:47;;;;;;;4.45;4.07;;;6.60;99.90;;;;;;5007351;28;20669;-72
2022/11/11 03:48:14;;;;;;;3.90;3.60;;;7.00;99.90;;;;;;5010347;28;20182;-72
2022/11/11 03:50:40;;;;;;;6.15;3.97;;;6.30;99.90;;;;;;5008841;28;20211;-72
2022/11/11 03:53:06;;;;;;;7.18;4.05;;;6.50;99.90;;;;;;5028379;28;20218;-72
2022/11/11 03:55:31;;;;;;;6.13;4.00;;;6.40;99.90;;;;;;5010206;28;20220;-71
2022/11/11 03:57:57;;;;;;;5.10;4.10;;;6.30;99.90;;;;;;5007974;28;20443;-71
2022/11/11 04:00:25;;;;;;;6.47;4.50;;;6.50;99.90;;;;;;5005283;28;20442;-71
2022/11/11 04:10:21;;;;;;;4.85;3.90;;;6.50;99.90;;;;;;4995801;28;20217;-71
2022/11/11 04:11:45;;;;;;;5.63;4.60;;;6.40;99.90;;;;;;5015630;28;20297;-71
2022/11/11 04:16:57;;;;;;;5.40;4.65;;;6.30;99.90;;;;;;5007869;28;20284;-71
2022/11/11 04:22:08;;;;;;;5.53;4.97;;;5.90;99.90;;;;;;5012405;28;20218;-71
2022/11/11 04:27:18;;;;;;;5.07;4.60;;;6.10;99.90;;;;;;5010533;28;20228;-71
2022/11/11 04:29:46;;;;;;;5.68;5.10;;;6.40;99.90;;;;;;5020563;28;20226;-71
2022/11/11 04:35:06;;;;;;;6.57;5.07;;;6.50;99.90;;;;;;5016374;28;20533;-71
2022/11/11 04:37:34;;;;;;;7.50;4.95;;;6.40;99.90;;;;;;5005763;28;20193;-71
2022/11/11 04:42:43;;;;;;;6.97;5.63;;;6.70;99.90;;;;;;5011452;28;20213;-71
2022/11/11 04:48:04;;;;;;;6.85;5.60;;;6.40;99.90;;;;;;5010089;28;20546;-71
2022/11/11 04:50:32;;;;;;;5.35;4.85;;;6.50;99.90;;;;;;5004210;28;20699;-71
2022/11/11 04:52:58;;;;;;;5.20;4.30;;;6.60;99.90;;;;;;5012989;28;20691;-72
2022/11/11 04:58:09;;;;;;;7.07;5.13;;;6.80;99.90;;;;;;5018541;28;20186;-71
2022/11/11 05:00:35;;;;;;;5.17;4.67;;;6.60;99.90;;;;;;5010550;28;20195;-71
2022/11/11 05:03:17;;;;;;;6.40;5.30;;;6.40;99.90;;;;;;5010490;28;20312;-71
2022/11/11 05:11:19;;;;;;;5.95;5.35;;;6.30;99.90;;;;;;5004476;28;20257;-71
2022/11/11 05:22:18;;;;;;;8.05;5.20;;;6.30;99.90;;;;;;5009112;28;20236;-70
2022/11/11 05:27:28;;;;;;;4.90;4.50;;;6.40;99.90;;;;;;5015744;28;20236;-70
2022/11/11 05:29:54;;;;;;;6.43;4.47;;;6.60;99.90;;;;;;5011465;28;20191;-70
2022/11/11 05:32:22;;;;;;;6.45;5.38;;;6.80;99.90;;;;;;5020193;28;20538;-70
2022/11/11 05:34:48;;;;;;;5.90;5.28;;;6.40;99.90;;;;;;5009862;28;20182;-70
2022/11/11 05:37:14;;;;;;;5.43;4.82;;;6.70;99.90;;;;;;5006659;28;20178;-70
2022/11/11 05:39:40;;;;;;;6.88;4.63;;;6.50;99.90;;;;;;5008352;28;21915;-70
2022/11/11 05:42:06;;;;;;;5.30;4.90;;;6.40;99.90;;;;;;5010918;28;20302;-70
2022/11/11 05:44:32;;;;;;;5.90;5.25;;;6.10;99.90;;;;;;5002668;28;20216;-71
2022/11/11 05:46:58;;;;;;;8.30;5.10;;;6.30;99.90;;;;;;5004389;28;20210;-70
2022/11/11 05:49:24;;;;;;;4.93;4.50;;;6.40;99.90;;;;;;5009448;28;20189;-70
2022/11/11 05:51:50;;;;;;;5.60;4.90;;;6.50;99.90;;;;;;5024044;28;20693;-70
2022/11/11 05:54:16;;;;;;;6.85;4.50;;;6.30;99.90;;;;;;5008639;28;20848;-70
2022/11/11 05:56:42;;;;;;;6.95;5.30;;;6.10;99.90;;;;;;5009404;28;20193;-70
2022/11/11 05:59:08;;;;;;;5.53;5.03;;;6.20;99.90;;;;;;5009042;28;20637;-70
2022/11/11 06:01:35;;;;;;;5.45;4.95;;;6.20;99.90;;;;;;5007241;28;20186;-70
2022/11/11 06:04:02;;;;;;;6.20;5.13;;;6.20;99.90;;;;;;5012239;28;20270;-70
2022/11/11 06:06:28;;;;;;;9.52;6.10;;;6.40;99.90;;;;;;5007381;28;20194;-71
2022/11/11 06:08:53;;;;;;;6.10;5.47;;;6.70;99.90;;;;;;5008439;28;20260;-70
2022/11/11 06:11:19;;;;;;;6.20;5.50;;;6.40;99.90;;;;;;5011515;28;20465;-64
2022/11/11 06:13:45;;;;;;;6.33;5.40;;;6.20;99.90;;;;;;5009626;28;20199;-64
2022/11/11 06:16:10;;;;;;;10.07;6.30;;;6.20;99.90;;;;;;5010472;28;20183;-64
2022/11/11 06:18:36;;;;;;;6.93;5.13;;;6.40;99.90;;;;;;5010372;28;20229;-67
2022/11/11 06:21:01;;;;;;;6.90;5.53;;;6.40;99.90;;;;;;5010230;28;20604;-65
2022/11/11 06:23:28;;;;;;;7.70;6.10;;;6.80;99.90;;;;;;5014242;28;20206;-64
2022/11/11 06:26:12;;;;;;;6.30;5.60;;;6.40;99.90;;;;;;5001942;28;20207;-67
2022/11/11 06:28:54;;;;;;;7.30;5.75;;;6.50;99.90;;;;;;5002380;28;20194;-66
2022/11/11 06:31:26;;;;;;;6.90;6.20;;;6.80;99.90;;;;;;5009328;28;20209;-66
2022/11/11 06:33:52;;;;;;;8.50;6.05;;;6.90;99.90;;;;;;5005914;28;20273;-67
2022/11/11 06:36:20;;;;;;;7.83;7.03;;;6.80;99.90;;;;;;5006119;28;20728;-63
2022/11/11 06:38:46;;;;;;;7.00;5.75;;;6.70;99.90;;;;;;5007393;28;20532;-67
2022/11/11 06:41:12;;;;;;;7.70;5.00;;;6.70;99.90;;;;;;5008506;28;20183;-68
2022/11/11 06:43:42;;;;;;;6.13;5.53;;;6.70;99.90;;;;;;5012987;28;20301;-68
2022/11/11 06:46:21;;;;;;;6.28;5.25;;;7.10;99.90;;;;;;5003050;28;20212;-69
2022/11/11 06:48:47;;;;;;;8.15;6.43;;;6.90;99.90;;;;;;5008396;28;20229;-69
2022/11/11 06:51:13;;;;;;;7.60;6.07;;;7.00;99.90;;;;;;5000764;28;20233;-69
2022/11/11 06:53:40;;;;;;;6.63;5.90;;;6.80;99.90;;;;;;5007861;28;20212;-69
2022/11/11 06:56:06;;;;;;;6.68;5.78;;;6.80;99.90;;;;;;5011171;28;20187;-70
2022/11/11 06:58:32;;;;;;;7.55;5.25;;;6.80;99.90;;;;;;5009040;28;20179;-68
2022/11/11 07:00:58;;;;;;;6.30;5.45;;;6.70;99.90;;;;;;5009679;28;20183;-67
2022/11/11 07:03:24;;;;;;;8.07;6.30;;;6.80;99.90;;;;;;5009088;28;20207;-68
2022/11/11 07:05:59;;;;;;;8.55;6.22;;;7.00;99.90;;;;;;5055533;28;20597;-70
2022/11/11 07:08:25;;;;;;;8.65;6.53;;;6.70;99.90;;;;;;5034987;28;20453;-70
2022/11/11 07:10:50;;;;;;;7.40;6.10;;;6.90;99.90;;;;;;5044390;28;20248;-69
2022/11/11 07:13:16;;;;;;;7.30;5.80;;;6.90;99.90;;;;;;5037063;28;20238;-70
2022/11/11 07:15:43;;;;;;;7.13;6.43;;;7.00;99.90;;;;;;5049148;28;20208;-67
2022/11/11 07:18:09;;;;;;;6.93;6.13;;;7.20;99.90;;;;;;5035639;28;20712;-68
2022/11/11 07:20:36;;;;;;;8.63;6.05;;;7.30;99.90;;;;;;5037964;28;20204;-68
2022/11/11 07:23:02;;;;;;;9.23;6.43;;;7.30;99.90;;;;;;5041578;28;20255;-67
2022/11/11 07:25:28;;;;;;;6.35;5.80;;;7.20;99.90;;;;;;5038471;28;20205;-67
2022/11/11 07:27:53;;;;;;;8.90;6.10;;;7.60;99.90;;;;;;5029587;28;20546;-75
2022/11/11 07:30:19;;;;;;;7.13;5.80;;;7.70;99.90;;;;;;5052009;28;20453;-70
2022/11/11 07:32:46;;;;;;;7.73;5.70;;;7.80;99.90;;;;;;5035418;28;20206;-73
2022/11/11 07:35:13;;;;;;;7.15;5.55;;;8.20;99.90;;;;;;5036277;28;20183;-70
2022/11/11 07:37:39;;;;;;;6.90;6.05;;;7.80;99.90;;;;;;5035804;28;20237;-70
2022/11/11 07:40:06;;;;;;;8.30;5.32;;;7.80;99.90;;;;;;5032254;28;20185;-72
2022/11/11 07:42:35;;;;;;;9.93;7.05;;;8.00;99.90;;;;;;5035172;28;20233;-67
2022/11/11 07:45:00;;;;;;;6.03;5.53;;;8.10;99.90;;;;;;5036016;28;20264;-72
2022/11/11 07:47:26;;;;;;;6.80;6.07;;;8.20;99.90;;;;;;5029247;28;20578;-70
2022/11/11 07:49:52;;;;;;;6.83;6.07;;;8.30;99.90;;;;;;5033647;28;20190;-71
2022/11/11 07:52:17;;;;;;;8.20;6.27;;;8.40;99.90;;;;;;5044340;28;20206;-72
2022/11/11 07:54:43;;;;;;;7.47;6.77;;;8.30;99.90;;;;;;5041957;28;20212;-71
2022/11/11 07:57:08;;;;;;;7.63;6.20;;;8.50;99.90;;;;;;5037837;28;20673;-69
2022/11/11 07:59:34;;;;;;;7.10;5.67;;;8.70;99.90;;;;;;5029896;28;20194;-65
2022/11/11 08:02:00;;;;;;;9.63;7.13;;;8.80;99.90;;;;;;5042394;28;20213;-68
2022/11/11 08:04:25;;;;;;;7.67;6.17;;;8.60;99.90;;;;;;5040286;28;20213;-69
2022/11/11 08:06:51;;;;;;;6.97;6.30;;;8.70;99.90;;;;;;5036295;28;20190;-70
2022/11/11 08:09:16;;;;;;;7.27;5.90;;;8.70;99.90;;;;;;5040743;28;20194;-70
2022/11/11 08:14:26;;;;;;;5.40;4.90;;;8.70;99.90;;;;;;5032460;28;20198;-69
2022/11/11 08:16:52;;;;;;;7.57;6.00;;;8.90;99.90;;;;;;5019496;28;20187;-67
2022/11/11 08:19:18;;;;;;;6.47;5.90;;;9.00;99.90;;;;;;5015347;28;20179;-67
2022/11/11 08:21:44;;;;;;;6.27;5.30;;;9.20;99.90;;;;;;5021754;28;20515;-67
2022/11/11 08:24:10;;;;;;;7.53;5.70;;;9.10;99.90;;;;;;5027309;28;20323;-68
2022/11/11 08:26:36;;;;;;;6.90;6.00;;;9.50;99.90;;;;;;5014484;28;22782;-67
2022/11/11 08:29:02;;;;;;;9.40;8.37;;;9.10;99.90;;;;;;5025138;28;21120;-69
2022/11/11 08:31:28;;;;;;;6.28;5.78;;;8.90;99.90;;;;;;5024593;28;20547;-70
2022/11/11 08:33:53;;;;;;;7.70;6.23;;;9.40;99.90;;;;;;5017803;28;20535;-76
2022/11/11 08:36:19;;;;;;;7.60;6.87;;;10.00;99.90;;;;;;5018332;28;20191;-70
2022/11/11 08:38:44;;;;;;;6.33;5.73;;;9.50;99.90;;;;;;5023887;28;20663;-72
2022/11/11 08:41:10;;;;;;;11.53;9.93;;;9.40;99.90;;;;;;5017814;28;20184;-64
2022/11/11 08:43:36;;;;;;;6.90;5.43;;;9.50;99.90;;;;;;5019340;28;20211;-65
2022/11/11 08:46:03;;;;;;;6.97;5.77;;;9.50;99.90;;;;;;5026289;28;20267;-65
2022/11/11 08:48:30;;;;;;;5.82;5.22;;;9.70;99.90;;;;;;5039509;28;20463;-69
2022/11/11 08:50:56;;;;;;;8.00;6.35;;;9.70;99.90;;;;;;5026743;28;20193;-68
2022/11/11 08:53:21;;;;;;;11.40;7.27;;;9.80;99.90;;;;;;5034860;28;20209;-71
2022/11/11 08:55:47;;;;;;;10.93;7.27;;;9.60;99.90;;;;;;5028436;28;20441;-70
2022/11/11 08:58:13;;;;;;;7.10;6.40;;;9.70;99.90;;;;;;5025533;28;20603;-68
2022/11/11 09:00:39;;;;;;;7.20;6.50;;;9.70;99.90;;;;;;5017764;28;20644;-61
2022/11/11 09:03:07;;;;;;;9.10;6.37;;;9.60;99.90;;;;;;5021241;28;20242;-66
2022/11/11 09:05:33;;;;;;;9.45;5.45;;;9.70;99.90;;;;;;5017334;28;20470;-64
2022/11/11 09:08:07;;;;;;;8.30;5.90;;;9.70;99.90;;;;;;5019338;28;20179;-64
2022/11/11 09:10:34;;;;;;;7.97;5.47;;;10.40;99.90;;;;;;5019831;28;20183;-65
2022/11/11 09:13:00;;;;;;;5.88;5.28;;;10.70;99.90;;;;;;5024474;28;20698;-65
2022/11/11 09:15:26;;;;;;;6.00;5.40;;;11.40;99.90;;;;;;5022179;28;20187;-67
2022/11/11 09:17:52;;;;;;;6.30;5.65;;;11.50;99.90;;;;;;5021805;28;20956;-76
2022/11/11 09:20:18;;;;;;;5.93;5.40;;;11.60;99.90;;;;;;5020550;28;20340;-73
2022/11/11 09:22:45;;;;;;;6.25;5.32;;;12.20;99.90;;;;;;5037818;28;21020;-68
2022/11/11 09:25:11;;;;;;;10.77;6.03;;;12.90;99.90;;;;;;5022533;28;20214;-65
2022/11/11 09:27:37;;;;;;;6.03;5.00;;;13.00;99.90;;;;;;5011695;28;20631;-75
2022/11/11 09:30:04;;;;;;;7.70;5.70;;;12.70;99.90;;;;;;5042179;28;20878;-71
2022/11/11 09:32:30;;;;;;;6.90;6.20;;;12.80;99.90;;;;;;5024300;28;20468;-67
2022/11/11 09:34:55;;;;;;;6.43;4.55;;;12.80;99.90;;;;;;5022123;28;20721;-68
2022/11/11 09:37:21;;;;;;;7.47;5.97;;;12.60;99.90;;;;;;5014580;28;20201;-67
2022/11/11 09:39:47;;;;;;;7.67;5.50;;;12.60;99.90;;;;;;5025984;28;20619;-67
2022/11/11 09:42:27;;;;;;;9.93;6.50;;;12.30;99.90;;;;;;5012352;28;20975;-67
2022/11/11 09:45:51;;;;;;;10.00;6.40;;;11.80;99.90;;;;;;5027974;28;20210;-67
2022/11/11 09:48:49;;;;;;;7.15;5.80;;;11.90;99.90;;;;;;4992637;28;20204;-67
2022/11/11 09:51:27;;;;;;;6.63;5.95;;;11.70;99.90;;;;;;5019735;28;20186;-67
2022/11/11 09:54:06;;;;;;;6.18;5.13;;;12.00;99.90;;;;;;5030780;28;20657;-67
2022/11/11 09:56:35;;;;;;;5.85;5.28;;;12.20;99.90;;;;;;5037392;28;20193;-67
2022/11/11 09:59:22;;;;;;;8.48;5.35;;;12.40;99.90;;;;;;5029021;28;20270;-67
2022/11/11 10:01:53;;;;;;;6.05;5.45;;;12.10;99.90;;;;;;5028893;28;20203;-67
2022/11/11 10:04:29;;;;;;;10.10;5.80;;;12.30;99.90;;;;;;5025615;28;20217;-67
2022/11/11 10:07:19;;;;;;;6.28;5.68;;;12.50;99.90;;;;;;5029151;28;20193;-67
2022/11/11 10:10:02;;;;;;;7.22;5.40;;;13.10;99.90;;;;;;5012626;28;20720;-67
2022/11/11 10:12:38;;;;;;;6.65;5.50;;;13.40;99.90;;;;;;5025397;28;20285;-67
2022/11/11 10:15:10;;;;;;;10.07;6.93;;;13.60;99.90;;;;;;5014632;28;20236;-67
2022/11/11 10:17:58;;;;;;;11.10;7.90;;;13.70;99.90;;;;;;5020995;28;20202;-67
2022/11/11 10:20:29;;;;;;;7.95;7.25;;;14.00;99.90;;;;;;5036458;28;20285;-67
2022/11/11 10:23:09;;;;;;;9.10;7.35;;;13.30;99.90;;;;;;5029188;28;20206;-67
2022/11/11 10:25:36;;;;;;;7.60;6.78;;;13.90;99.90;;;;;;5028016;28;20762;-67
2022/11/11 10:28:02;;;;;;;11.30;6.97;;;13.60;99.90;;;;;;5040900;28;20276;-67
2022/11/11 10:30:30;;;;;;;8.00;7.20;;;13.90;99.90;;;;;;5018074;28;20233;-68
2022/11/11 10:33:18;;;;;;;6.82;6.00;;;14.10;99.90;;;;;;5027080;28;20206;-67
2022/11/11 10:35:46;;;;;;;7.03;6.32;;;14.50;99.30;;;;;;5028545;28;20527;-67
2022/11/11 10:38:33;;;;;;;7.68;6.85;;;14.70;98.90;;;;;;5035469;28;20178;-67
2022/11/11 10:41:10;;;;;;;6.45;5.80;;;14.70;97.90;;;;;;5033746;28;20222;-68
2022/11/11 10:43:36;;;;;;;7.25;6.65;;;15.50;97.50;;;;;;5026331;28;20201;-68
2022/11/11 10:46:12;;;;;;;7.30;6.60;;;16.10;96.80;;;;;;5010420;28;20182;-68
2022/11/11 10:48:53;;;;;;;7.32;6.55;;;16.40;96.20;;;;;;5010300;28;20774;-68
2022/11/11 10:51:19;;;;;;;7.68;6.88;;;16.60;95.20;;;;;;5020124;28;20177;-68
2022/11/11 10:54:05;;;;;;;7.07;6.47;;;16.50;94.70;;;;;;5023060;28;20205;-69
2022/11/11 10:56:50;;;;;;;7.97;6.97;;;16.70;94.50;;;;;;5016181;28;20204;-67
2022/11/11 10:59:21;;;;;;;7.70;6.95;;;16.50;94.40;;;;;;5011327;28;20577;-66
2022/11/11 11:02:25;;;;;;;8.25;6.30;;;16.90;94.50;;;;;;5015838;28;20217;-67
2022/11/11 11:04:53;;;;;;;5.82;5.40;;;16.70;94.20;;;;;;5024625;28;20341;-67
2022/11/11 11:07:24;;;;;;;7.85;7.20;;;16.50;94.30;;;;;;5019682;28;20243;-67
2022/11/11 11:10:05;;;;;;;8.02;7.05;;;16.30;94.40;;;;;;5019292;28;20257;-67
2022/11/11 11:12:40;;;;;;;7.00;6.30;;;16.10;95.20;;;;;;5011427;28;20238;-67
2022/11/11 11:15:13;;;;;;;7.53;6.93;;;16.00;95.50;;;;;;5016725;28;21133;-67
2022/11/11 11:17:47;;;;;;;9.32;7.85;;;15.80;96.00;;;;;;5010522;28;20730;-67
2022/11/11 11:20:16;;;;;;;7.97;7.05;;;15.70;96.20;;;;;;5017579;28;20269;-67
2022/11/11 11:22:58;;;;;;;8.60;7.43;;;15.80;96.40;;;;;;5024369;28;20247;-67
2022/11/11 11:25:25;;;;;;;8.20;7.32;;;15.80;96.30;;;;;;5010189;28;20206;-67
2022/11/11 11:27:52;;;;;;;7.85;7.05;;;15.90;96.10;;;;;;5009900;28;20191;-67
2022/11/11 11:30:21;;;;;;;7.85;6.72;;;15.80;96.30;;;;;;5020386;28;20280;-68
2022/11/11 11:32:57;;;;;;;8.00;7.20;;;15.80;96.80;;;;;;5019795;28;20202;-68
2022/11/11 11:35:45;;;;;;;7.93;7.32;;;15.50;97.10;;;;;;5019933;28;20893;-68
2022/11/11 11:38:12;;;;;;;9.15;8.25;;;15.40;97.60;;;;;;5023402;28;20569;-66
2022/11/11 11:40:48;;;;;;;7.72;6.88;;;15.20;98.00;;;;;;5014016;28;20183;-67
2022/11/11 11:43:35;;;;;;;8.90;8.02;;;14.90;98.10;;;;;;5030439;28;20211;-66
2022/11/11 11:46:04;;;;;;;7.85;7.15;;;14.80;98.40;;;;;;5023236;28;20233;-68
2022/11/11 11:48:30;;;;;;;7.88;7.05;;;14.90;99.00;;;;;;5012562;28;20611;-67
2022/11/11 11:51:07;;;;;;;8.17;7.47;;;14.70;99.10;;;;;;5016209;28;20222;-63
2022/11/11 11:54:12;;;;;;;8.77;7.68;;;14.70;99.60;;;;;;5022577;28;20206;-63
2022/11/11 11:56:45;;;;;;;11.25;7.75;;;14.30;99.60;;;;;;5023910;28;20195;-66
2022/11/11 11:59:38;;;;;;;8.45;7.65;;;14.20;99.90;;;;;;5018633;28;20205;-64
2022/11/11 12:02:45;;;;;;;8.57;7.70;;;14.30;99.90;;;;;;5016461;28;20198;-72
2022/11/11 12:05:30;;;;;;;9.77;7.70;;;14.30;99.90;;;;;;5018413;28;20230;-69
2022/11/11 12:08:13;;;;;;;7.30;6.68;;;14.50;99.90;;;;;;5019279;28;20206;-69
2022/11/11 12:10:47;;;;;;;8.38;7.55;;;14.60;99.90;;;;;;5019081;28;20561;-71
2022/11/11 12:13:34;;;;;;;7.80;7.00;;;14.40;99.90;;;;;;5019077;28;20195;-70
2022/11/11 12:16:26;;;;;;;7.60;6.88;;;14.30;99.90;;;;;;5017234;28;20186;-69
2022/11/11 12:19:18;;;;;;;7.30;6.60;;;14.60;99.90;;;;;;5028346;28;20190;-69
2022/11/11 12:22:15;;;;;;;9.63;7.70;;;14.60;99.90;;;;;;5022433;28;20667;-69
2022/11/11 12:24:49;;;;;;;8.95;7.85;;;14.70;99.90;;;;;;5019684;28;20305;-70
2022/11/11 12:27:49;;;;;;;8.05;7.32;;;14.70;99.90;;;;;;5020010;28;20178;-70
2022/11/11 12:30:28;;;;;;;8.75;7.35;;;14.60;99.90;;;;;;5036045;28;20204;-70
2022/11/11 12:33:08;;;;;;;8.07;7.22;;;14.90;99.90;;;;;;5039353;28;20647;-70
2022/11/11 12:35:47;;;;;;;11.38;7.32;;;14.60;99.90;;;;;;5024972;28;20791;-70
2022/11/11 12:38:25;;;;;;;9.02;7.95;;;15.10;99.90;;;;;;5016882;28;20186;-70
2022/11/11 12:41:23;;;;;;;9.10;7.45;;;14.90;99.90;;;;;;5013709;28;20206;-70
2022/11/11 12:43:57;;;;;;;12.10;9.90;;;14.90;99.90;;;;;;5023924;28;20218;-70
2022/11/11 12:46:34;;;;;;;9.70;7.50;;;14.70;99.90;;;;;;5018142;28;20593;-70
2022/11/11 12:49:22;;;;;;;8.75;7.50;;;15.00;99.90;;;;;;5025042;28;20231;-70
2022/11/11 12:51:56;;;;;;;10.68;9.65;;;15.00;99.90;;;;;;5019400;28;20210;-70
2022/11/11 12:54:36;;;;;;;7.18;6.47;;;15.20;99.90;;;;;;5015323;28;20190;-69
2022/11/11 12:57:40;;;;;;;7.38;6.68;;;15.20;99.90;;;;;;5018146;28;20187;-70
2022/11/11 13:00:19;;;;;;;8.20;6.95;;;15.20;99.90;;;;;;5025397;28;20208;-65
2022/11/11 13:02:56;;;;;;;7.93;7.13;;;15.50;99.90;;;;;;5019743;28;20197;-65
2022/11/11 13:05:33;;;;;;;11.52;8.45;;;15.20;99.90;;;;;;5019653;28;20216;-65
2022/11/11 13:08:01;;;;;;;8.48;7.68;;;15.40;99.90;;;;;;5023810;28;20232;-65
2022/11/11 13:10:57;;;;;;;13.85;9.63;;;15.40;99.90;;;;;;5019644;28;20257;-66
2022/11/11 13:13:29;;;;;;;8.27;7.40;;;15.70;99.90;;;;;;5020652;28;20312;-66
2022/11/11 13:15:55;;;;;;;8.02;7.22;;;15.70;99.90;;;;;;5016294;28;20269;-65
2022/11/11 13:18:44;;;;;;;9.45;6.57;;;15.30;99.90;;;;;;5017764;28;20186;-64
2022/11/11 13:21:15;;;;;;;9.68;7.68;;;15.50;99.90;;;;;;5021206;28;20305;-64
2022/11/11 13:23:40;;;;;;;8.80;7.90;;;15.10;99.90;;;;;;5018109;28;20210;-65
2022/11/11 13:26:23;;;;;;;8.33;7.40;;;15.20;99.90;;;;;;5022967;28;20206;-65
2022/11/11 13:28:55;;;;;;;14.75;9.02;;;15.40;99.90;;;;;;5016384;28;20229;-64
2022/11/11 13:31:32;;;;;;;8.65;6.93;;;15.50;99.90;;;;;;5018205;28;20539;-64
2022/11/11 13:34:04;;;;;;;8.88;6.10;;;15.50;99.90;;;;;;5020752;28;20175;-64
2022/11/11 13:36:38;;;;;;;7.72;6.90;;;15.60;99.90;;;;;;5020172;28;20183;-64
2022/11/11 13:39:04;;;;;;;12.73;6.50;;;15.70;99.90;;;;;;5019675;28;20189;-64
2022/11/11 13:41:35;;;;;;;7.23;6.57;;;15.50;99.90;;;;;;5015259;28;20266;-67
2022/11/11 13:44:05;;;;;;;7.15;6.47;;;15.40;99.90;;;;;;5019584;28;20178;-72
2022/11/11 13:46:44;;;;;;;6.85;6.15;;;15.80;99.90;;;;;;5021086;28;20225;-72
2022/11/11 13:49:30;;;;;;;9.20;6.50;;;15.50;99.90;;;;;;5017482;28;20691;-73
2022/11/11 13:52:04;;;;;;;7.10;6.40;;;15.70;99.90;;;;;;5018095;28;20580;-74
2022/11/11 13:54:41;;;;;;;10.98;7.95;;;15.80;99.90;;;;;;5022009;28;20175;-74
2022/11/11 13:57:14;;;;;;;11.45;8.38;;;15.70;99.90;;;;;;5025938;28;20923;-73
2022/11/11 13:59:48;;;;;;;9.00;8.10;;;15.70;99.90;;;;;;5011586;28;20459;-74
2022/11/11 14:02:30;;;;;;;10.40;7.10;;;15.90;99.90;;;;;;5014840;28;20202;-71
2022/11/11 14:05:05;;;;;;;8.93;7.38;;;15.50;99.90;;;;;;5021311;28;20216;-70
2022/11/11 14:07:52;;;;;;;8.90;7.43;;;15.50;99.90;;;;;;5012933;28;20179;-71
2022/11/11 14:10:18;;;;;;;7.30;6.60;;;15.70;99.90;;;;;;5035757;28;20181;-72
2022/11/11 14:12:46;;;;;;;8.03;7.30;;;15.40;99.90;;;;;;5023671;28;20277;-73
2022/11/11 14:15:37;;;;;;;7.43;6.72;;;15.60;99.90;;;;;;5021250;28;20187;-73
2022/11/11 14:18:30;;;;;;;8.73;6.57;;;15.60;99.90;;;;;;5011988;28;20210;-75
2022/11/11 14:20:56;;;;;;;8.20;6.78;;;15.60;99.90;;;;;;5020749;28;20577;-75
2022/11/11 14:23:39;;;;;;;6.80;6.13;;;15.40;99.90;;;;;;5036207;28;20298;-75